sensor_id;sensor_type;location;lat;lon;timestamp;P1;durP1;ratioP1;P2;durP2;ratioP2
11135;SDS011;5622;50.840;4.948;2023-03-04T00:01:42;11.93;;;10.70;;
11135;SDS011;5622;50.840;4.948;2023-03-04T00:04:09;13.63;;;10.60;;
11135;SDS011;5622;50.840;4.948;2023-03-04T00:06:36;14.70;;;10.83;;
11135;SDS011;5622;50.840;4.948;2023-03-04T00:09:04;15.87;;;11.00;;
11135;SDS011;5622;50.840;4.948;2023-03-04T00:11:31;18.77;;;10.30;;
11135;SDS011;5622;50.840;4.948;2023-03-04T00:13:58;14.87;;;9.90;;
11135;SDS011;5622;50.840;4.948;2023-03-04T00:16:25;16.33;;;10.47;;
11135;SDS011;5622;50.840;4.948;2023-03-04T00:18:54;15.53;;;9.67;;
11135;SDS011;5622;50.840;4.948;2023-03-04T00:21:22;13.80;;;9.50;;
11135;SDS011;5622;50.840;4.948;2023-03-04T00:23:50;16.03;;;9.27;;
11135;SDS011;5622;50.840;4.948;2023-03-04T00:26:17;14.70;;;9.67;;
11135;SDS011;5622;50.840;4.948;2023-03-04T00:28:44;15.70;;;9.43;;
11135;SDS011;5622;50.840;4.948;2023-03-04T00:31:11;12.60;;;8.90;;
11135;SDS011;5622;50.840;4.948;2023-03-04T00:33:38;14.17;;;9.20;;
11135;SDS011;5622;50.840;4.948;2023-03-04T00:36:09;16.30;;;9.07;;
11135;SDS011;5622;50.840;4.948;2023-03-04T00:38:36;17.13;;;9.50;;
11135;SDS011;5622;50.840;4.948;2023-03-04T00:41:03;16.30;;;8.83;;
11135;SDS011;5622;50.840;4.948;2023-03-04T00:43:31;19.00;;;8.83;;
11135;SDS011;5622;50.840;4.948;2023-03-04T00:45:58;15.50;;;8.90;;
11135;SDS011;5622;50.840;4.948;2023-03-04T00:48:25;18.00;;;8.47;;
11135;SDS011;5622;50.840;4.948;2023-03-04T00:50:53;15.07;;;9.33;;
11135;SDS011;5622;50.840;4.948;2023-03-04T00:53:21;14.20;;;8.90;;
11135;SDS011;5622;50.840;4.948;2023-03-04T00:55:48;14.87;;;9.37;;
11135;SDS011;5622;50.840;4.948;2023-03-04T00:58:16;10.67;;;8.70;;
11135;SDS011;5622;50.840;4.948;2023-03-04T01:00:43;17.97;;;9.23;;
11135;SDS011;5622;50.840;4.948;2023-03-04T01:03:10;14.00;;;8.47;;
11135;SDS011;5622;50.840;4.948;2023-03-04T01:05:37;18.30;;;8.77;;
11135;SDS011;5622;50.840;4.948;2023-03-04T01:08:04;16.73;;;8.30;;
11135;SDS011;5622;50.840;4.948;2023-03-04T01:10:33;17.03;;;9.33;;
11135;SDS011;5622;50.840;4.948;2023-03-04T01:13:00;13.33;;;7.87;;
11135;SDS011;5622;50.840;4.948;2023-03-04T01:15:27;14.37;;;8.30;;
11135;SDS011;5622;50.840;4.948;2023-03-04T01:17:55;13.90;;;8.30;;
11135;SDS011;5622;50.840;4.948;2023-03-04T01:20:22;12.17;;;8.33;;
11135;SDS011;5622;50.840;4.948;2023-03-04T01:22:49;19.17;;;8.73;;
11135;SDS011;5622;50.840;4.948;2023-03-04T01:25:16;16.70;;;8.80;;
11135;SDS011;5622;50.840;4.948;2023-03-04T01:27:45;13.70;;;8.20;;
11135;SDS011;5622;50.840;4.948;2023-03-04T01:30:12;14.93;;;8.50;;
11135;SDS011;5622;50.840;4.948;2023-03-04T01:32:39;13.77;;;8.87;;
11135;SDS011;5622;50.840;4.948;2023-03-04T01:35:07;12.30;;;8.13;;
11135;SDS011;5622;50.840;4.948;2023-03-04T01:37:34;21.07;;;8.80;;
11135;SDS011;5622;50.840;4.948;2023-03-04T01:40:02;13.90;;;8.20;;
11135;SDS011;5622;50.840;4.948;2023-03-04T01:42:31;14.93;;;8.60;;
11135;SDS011;5622;50.840;4.948;2023-03-04T01:45:01;21.53;;;8.00;;
11135;SDS011;5622;50.840;4.948;2023-03-04T01:47:30;13.63;;;8.77;;
11135;SDS011;5622;50.840;4.948;2023-03-04T01:49:59;14.87;;;8.03;;
11135;SDS011;5622;50.840;4.948;2023-03-04T01:52:30;14.43;;;7.67;;
11135;SDS011;5622;50.840;4.948;2023-03-04T01:54:57;14.17;;;8.10;;
11135;SDS011;5622;50.840;4.948;2023-03-04T01:57:24;15.33;;;7.57;;
11135;SDS011;5622;50.840;4.948;2023-03-04T02:02:43;15.87;;;7.47;;
11135;SDS011;5622;50.840;4.948;2023-03-04T02:05:11;11.60;;;7.40;;
11135;SDS011;5622;50.840;4.948;2023-03-04T02:07:38;12.80;;;7.70;;
11135;SDS011;5622;50.840;4.948;2023-03-04T02:10:07;16.33;;;8.33;;
11135;SDS011;5622;50.840;4.948;2023-03-04T02:12:34;13.83;;;7.53;;
11135;SDS011;5622;50.840;4.948;2023-03-04T02:15:02;12.30;;;7.50;;
11135;SDS011;5622;50.840;4.948;2023-03-04T02:17:31;15.43;;;7.40;;
11135;SDS011;5622;50.840;4.948;2023-03-04T02:20:00;15.00;;;6.90;;
11135;SDS011;5622;50.840;4.948;2023-03-04T02:22:32;19.03;;;7.77;;
11135;SDS011;5622;50.840;4.948;2023-03-04T02:25:06;15.57;;;7.20;;
11135;SDS011;5622;50.840;4.948;2023-03-04T02:27:39;14.17;;;6.90;;
11135;SDS011;5622;50.840;4.948;2023-03-04T02:30:08;14.33;;;7.73;;
11135;SDS011;5622;50.840;4.948;2023-03-04T02:32:36;14.87;;;7.00;;
11135;SDS011;5622;50.840;4.948;2023-03-04T02:35:04;11.83;;;6.87;;
11135;SDS011;5622;50.840;4.948;2023-03-04T02:37:32;17.20;;;7.03;;
11135;SDS011;5622;50.840;4.948;2023-03-04T02:39:59;13.97;;;7.10;;
11135;SDS011;5622;50.840;4.948;2023-03-04T02:42:26;14.67;;;7.17;;
11135;SDS011;5622;50.840;4.948;2023-03-04T02:44:59;13.03;;;7.50;;
11135;SDS011;5622;50.840;4.948;2023-03-04T02:47:27;13.77;;;7.30;;
11135;SDS011;5622;50.840;4.948;2023-03-04T02:49:54;15.40;;;6.77;;
11135;SDS011;5622;50.840;4.948;2023-03-04T02:52:24;14.57;;;6.73;;
11135;SDS011;5622;50.840;4.948;2023-03-04T02:54:51;13.93;;;7.53;;
11135;SDS011;5622;50.840;4.948;2023-03-04T02:57:19;11.53;;;6.43;;
11135;SDS011;5622;50.840;4.948;2023-03-04T02:59:46;13.43;;;6.93;;
11135;SDS011;5622;50.840;4.948;2023-03-04T03:02:14;15.83;;;7.90;;
11135;SDS011;5622;50.840;4.948;2023-03-04T03:04:41;15.23;;;9.03;;
11135;SDS011;5622;50.840;4.948;2023-03-04T03:07:09;20.53;;;9.43;;
11135;SDS011;5622;50.840;4.948;2023-03-04T03:09:36;16.63;;;9.63;;
11135;SDS011;5622;50.840;4.948;2023-03-04T03:12:03;19.07;;;9.73;;
11135;SDS011;5622;50.840;4.948;2023-03-04T03:14:30;19.60;;;10.17;;
11135;SDS011;5622;50.840;4.948;2023-03-04T03:16:57;19.03;;;9.40;;
11135;SDS011;5622;50.840;4.948;2023-03-04T03:19:26;14.90;;;7.63;;
11135;SDS011;5622;50.840;4.948;2023-03-04T03:21:53;13.73;;;6.23;;
11135;SDS011;5622;50.840;4.948;2023-03-04T03:24:20;14.83;;;6.63;;
11135;SDS011;5622;50.840;4.948;2023-03-04T03:26:47;14.73;;;6.03;;
11135;SDS011;5622;50.840;4.948;2023-03-04T03:29:14;12.87;;;5.67;;
11135;SDS011;5622;50.840;4.948;2023-03-04T03:31:41;16.47;;;5.83;;
11135;SDS011;5622;50.840;4.948;2023-03-04T03:34:08;14.20;;;6.00;;
11135;SDS011;5622;50.840;4.948;2023-03-04T03:36:37;11.20;;;5.20;;
11135;SDS011;5622;50.840;4.948;2023-03-04T03:39:04;13.17;;;5.47;;
11135;SDS011;5622;50.840;4.948;2023-03-04T03:41:31;12.80;;;5.40;;
11135;SDS011;5622;50.840;4.948;2023-03-04T03:43:58;16.80;;;6.00;;
11135;SDS011;5622;50.840;4.948;2023-03-04T03:46:25;15.53;;;6.13;;
11135;SDS011;5622;50.840;4.948;2023-03-04T03:48:54;12.17;;;5.33;;
11135;SDS011;5622;50.840;4.948;2023-03-04T03:51:21;15.10;;;5.50;;
11135;SDS011;5622;50.840;4.948;2023-03-04T03:53:49;11.53;;;4.90;;
11135;SDS011;5622;50.840;4.948;2023-03-04T03:56:16;14.53;;;4.87;;
11135;SDS011;5622;50.840;4.948;2023-03-04T03:58:43;9.97;;;4.53;;
11135;SDS011;5622;50.840;4.948;2023-03-04T04:01:10;11.30;;;5.17;;
11135;SDS011;5622;50.840;4.948;2023-03-04T04:03:37;12.33;;;5.27;;
11135;SDS011;5622;50.840;4.948;2023-03-04T04:06:05;8.67;;;4.23;;
11135;SDS011;5622;50.840;4.948;2023-03-04T04:08:32;13.83;;;5.10;;
11135;SDS011;5622;50.840;4.948;2023-03-04T04:11:01;15.73;;;5.50;;
11135;SDS011;5622;50.840;4.948;2023-03-04T04:13:28;15.70;;;4.93;;
11135;SDS011;5622;50.840;4.948;2023-03-04T04:15:55;11.83;;;5.40;;
11135;SDS011;5622;50.840;4.948;2023-03-04T04:18:23;13.97;;;5.40;;
11135;SDS011;5622;50.840;4.948;2023-03-04T04:20:51;12.73;;;4.83;;
11135;SDS011;5622;50.840;4.948;2023-03-04T04:23:18;13.27;;;5.13;;
11135;SDS011;5622;50.840;4.948;2023-03-04T04:25:45;12.00;;;4.30;;
11135;SDS011;5622;50.840;4.948;2023-03-04T04:28:14;9.03;;;4.30;;
11135;SDS011;5622;50.840;4.948;2023-03-04T04:30:41;9.20;;;4.87;;
11135;SDS011;5622;50.840;4.948;2023-03-04T04:33:08;15.40;;;6.30;;
11135;SDS011;5622;50.840;4.948;2023-03-04T04:35:36;15.47;;;5.57;;
11135;SDS011;5622;50.840;4.948;2023-03-04T04:38:04;11.70;;;5.57;;
11135;SDS011;5622;50.840;4.948;2023-03-04T04:40:31;13.63;;;5.57;;
11135;SDS011;5622;50.840;4.948;2023-03-04T04:42:58;12.80;;;5.67;;
11135;SDS011;5622;50.840;4.948;2023-03-04T04:45:27;11.23;;;4.80;;
11135;SDS011;5622;50.840;4.948;2023-03-04T04:47:54;16.00;;;5.87;;
11135;SDS011;5622;50.840;4.948;2023-03-04T04:50:21;15.37;;;5.37;;
11135;SDS011;5622;50.840;4.948;2023-03-04T04:52:48;12.80;;;5.63;;
11135;SDS011;5622;50.840;4.948;2023-03-04T04:55:16;14.50;;;5.30;;
11135;SDS011;5622;50.840;4.948;2023-03-04T04:57:43;16.10;;;5.27;;
11135;SDS011;5622;50.840;4.948;2023-03-04T05:00:10;16.37;;;6.50;;
11135;SDS011;5622;50.840;4.948;2023-03-04T05:02:40;11.10;;;5.17;;
11135;SDS011;5622;50.840;4.948;2023-03-04T05:05:07;15.10;;;5.30;;
11135;SDS011;5622;50.840;4.948;2023-03-04T05:07:34;18.07;;;5.30;;
11135;SDS011;5622;50.840;4.948;2023-03-04T05:10:02;11.40;;;5.27;;
11135;SDS011;5622;50.840;4.948;2023-03-04T05:12:30;12.83;;;5.23;;
11135;SDS011;5622;50.840;4.948;2023-03-04T05:14:57;15.43;;;5.73;;
11135;SDS011;5622;50.840;4.948;2023-03-04T05:17:24;17.77;;;6.50;;
11135;SDS011;5622;50.840;4.948;2023-03-04T05:19:53;14.30;;;5.87;;
11135;SDS011;5622;50.840;4.948;2023-03-04T05:22:20;11.90;;;5.77;;
11135;SDS011;5622;50.840;4.948;2023-03-04T05:24:47;17.20;;;6.80;;
11135;SDS011;5622;50.840;4.948;2023-03-04T05:27:14;12.87;;;6.03;;
11135;SDS011;5622;50.840;4.948;2023-03-04T05:29:41;13.33;;;5.63;;
11135;SDS011;5622;50.840;4.948;2023-03-04T05:32:10;13.47;;;5.57;;
11135;SDS011;5622;50.840;4.948;2023-03-04T05:34:38;14.70;;;5.57;;
11135;SDS011;5622;50.840;4.948;2023-03-04T05:37:06;13.00;;;5.80;;
11135;SDS011;5622;50.840;4.948;2023-03-04T05:39:33;13.30;;;6.03;;
11135;SDS011;5622;50.840;4.948;2023-03-04T05:42:00;14.07;;;5.70;;
11135;SDS011;5622;50.840;4.948;2023-03-04T05:44:27;12.17;;;6.07;;
11135;SDS011;5622;50.840;4.948;2023-03-04T05:46:55;11.50;;;5.23;;
11135;SDS011;5622;50.840;4.948;2023-03-04T05:49:22;13.13;;;5.77;;
11135;SDS011;5622;50.840;4.948;2023-03-04T05:51:49;14.43;;;5.77;;
11135;SDS011;5622;50.840;4.948;2023-03-04T05:54:17;9.73;;;6.10;;
11135;SDS011;5622;50.840;4.948;2023-03-04T05:56:45;12.73;;;5.57;;
11135;SDS011;5622;50.840;4.948;2023-03-04T05:59:12;12.73;;;5.97;;
11135;SDS011;5622;50.840;4.948;2023-03-04T06:01:44;15.60;;;6.30;;
11135;SDS011;5622;50.840;4.948;2023-03-04T06:04:11;10.23;;;5.30;;
11135;SDS011;5622;50.840;4.948;2023-03-04T06:06:38;14.63;;;6.23;;
11135;SDS011;5622;50.840;4.948;2023-03-04T06:09:05;12.27;;;5.47;;
11135;SDS011;5622;50.840;4.948;2023-03-04T06:11:34;10.23;;;6.03;;
11135;SDS011;5622;50.840;4.948;2023-03-04T06:14:01;17.17;;;7.00;;
11135;SDS011;5622;50.840;4.948;2023-03-04T06:16:29;11.17;;;5.23;;
11135;SDS011;5622;50.840;4.948;2023-03-04T06:18:56;9.50;;;5.40;;
11135;SDS011;5622;50.840;4.948;2023-03-04T06:21:23;13.00;;;5.97;;
11135;SDS011;5622;50.840;4.948;2023-03-04T06:23:50;12.40;;;5.77;;
11135;SDS011;5622;50.840;4.948;2023-03-04T06:26:17;14.93;;;5.70;;
11135;SDS011;5622;50.840;4.948;2023-03-04T06:28:45;18.83;;;5.80;;
11135;SDS011;5622;50.840;4.948;2023-03-04T06:31:13;14.40;;;6.13;;
11135;SDS011;5622;50.840;4.948;2023-03-04T06:33:40;13.30;;;5.00;;
11135;SDS011;5622;50.840;4.948;2023-03-04T06:36:07;11.43;;;4.87;;
11135;SDS011;5622;50.840;4.948;2023-03-04T06:38:34;14.93;;;5.10;;
11135;SDS011;5622;50.840;4.948;2023-03-04T06:41:07;10.77;;;5.10;;
11135;SDS011;5622;50.840;4.948;2023-03-04T06:43:35;14.60;;;5.53;;
11135;SDS011;5622;50.840;4.948;2023-03-04T06:46:04;10.37;;;5.37;;
11135;SDS011;5622;50.840;4.948;2023-03-04T06:48:33;10.67;;;4.63;;
11135;SDS011;5622;50.840;4.948;2023-03-04T06:51:03;11.37;;;4.50;;
11135;SDS011;5622;50.840;4.948;2023-03-04T06:53:32;14.30;;;5.50;;
11135;SDS011;5622;50.840;4.948;2023-03-04T06:55:59;9.53;;;4.00;;
11135;SDS011;5622;50.840;4.948;2023-03-04T06:58:26;10.13;;;4.63;;
11135;SDS011;5622;50.840;4.948;2023-03-04T07:00:53;12.47;;;4.27;;
11135;SDS011;5622;50.840;4.948;2023-03-04T07:03:22;14.67;;;5.07;;
11135;SDS011;5622;50.840;4.948;2023-03-04T07:05:49;13.13;;;4.93;;
11135;SDS011;5622;50.840;4.948;2023-03-04T07:08:16;10.07;;;4.40;;
11135;SDS011;5622;50.840;4.948;2023-03-04T07:10:43;12.90;;;4.13;;
11135;SDS011;5622;50.840;4.948;2023-03-04T07:13:10;10.27;;;4.20;;
11135;SDS011;5622;50.840;4.948;2023-03-04T07:15:37;17.03;;;4.00;;
11135;SDS011;5622;50.840;4.948;2023-03-04T07:18:04;12.13;;;4.40;;
11135;SDS011;5622;50.840;4.948;2023-03-04T07:20:33;11.20;;;4.10;;
11135;SDS011;5622;50.840;4.948;2023-03-04T07:23:00;10.37;;;4.13;;
11135;SDS011;5622;50.840;4.948;2023-03-04T07:25:27;8.23;;;4.20;;
11135;SDS011;5622;50.840;4.948;2023-03-04T07:27:55;13.63;;;4.90;;
11135;SDS011;5622;50.840;4.948;2023-03-04T07:30:22;14.17;;;4.40;;
11135;SDS011;5622;50.840;4.948;2023-03-04T07:32:49;16.30;;;9.63;;
11135;SDS011;5622;50.840;4.948;2023-03-04T07:35:19;14.77;;;7.53;;
11135;SDS011;5622;50.840;4.948;2023-03-04T07:37:49;18.90;;;13.70;;
11135;SDS011;5622;50.840;4.948;2023-03-04T07:40:17;25.67;;;18.57;;
11135;SDS011;5622;50.840;4.948;2023-03-04T07:42:48;15.30;;;11.87;;
11135;SDS011;5622;50.840;4.948;2023-03-04T07:45:15;14.27;;;9.27;;
11135;SDS011;5622;50.840;4.948;2023-03-04T07:47:42;12.03;;;5.90;;
11135;SDS011;5622;50.840;4.948;2023-03-04T07:50:10;10.60;;;4.80;;
11135;SDS011;5622;50.840;4.948;2023-03-04T07:52:37;11.30;;;5.03;;
11135;SDS011;5622;50.840;4.948;2023-03-04T07:55:07;8.00;;;4.53;;
11135;SDS011;5622;50.840;4.948;2023-03-04T07:57:37;12.13;;;4.80;;
11135;SDS011;5622;50.840;4.948;2023-03-04T08:00:05;10.67;;;4.30;;
11135;SDS011;5622;50.840;4.948;2023-03-04T08:02:33;9.13;;;3.90;;
11135;SDS011;5622;50.840;4.948;2023-03-04T08:05:00;9.97;;;4.60;;
11135;SDS011;5622;50.840;4.948;2023-03-04T08:07:27;8.20;;;4.53;;
11135;SDS011;5622;50.840;4.948;2023-03-04T08:09:54;13.17;;;4.83;;
11135;SDS011;5622;50.840;4.948;2023-03-04T08:12:22;12.43;;;4.80;;
11135;SDS011;5622;50.840;4.948;2023-03-04T08:14:50;16.27;;;4.70;;
11135;SDS011;5622;50.840;4.948;2023-03-04T08:17:18;11.80;;;6.20;;
11135;SDS011;5622;50.840;4.948;2023-03-04T08:19:45;11.83;;;5.73;;
11135;SDS011;5622;50.840;4.948;2023-03-04T08:22:12;16.20;;;5.80;;
11135;SDS011;5622;50.840;4.948;2023-03-04T08:24:39;11.60;;;5.17;;
11135;SDS011;5622;50.840;4.948;2023-03-04T08:27:06;13.47;;;5.17;;
11135;SDS011;5622;50.840;4.948;2023-03-04T08:29:35;16.27;;;6.30;;
11135;SDS011;5622;50.840;4.948;2023-03-04T08:32:02;12.63;;;5.67;;
11135;SDS011;5622;50.840;4.948;2023-03-04T08:34:29;18.23;;;5.77;;
11135;SDS011;5622;50.840;4.948;2023-03-04T08:36:56;14.40;;;5.47;;
11135;SDS011;5622;50.840;4.948;2023-03-04T08:39:24;16.23;;;5.77;;
11135;SDS011;5622;50.840;4.948;2023-03-04T08:41:51;19.73;;;6.30;;
11135;SDS011;5622;50.840;4.948;2023-03-04T08:44:18;13.03;;;6.43;;
11135;SDS011;5622;50.840;4.948;2023-03-04T08:46:47;14.63;;;7.17;;
11135;SDS011;5622;50.840;4.948;2023-03-04T08:49:14;15.63;;;6.30;;
11135;SDS011;5622;50.840;4.948;2023-03-04T08:51:41;16.87;;;7.97;;
11135;SDS011;5622;50.840;4.948;2023-03-04T08:54:09;14.20;;;7.70;;
11135;SDS011;5622;50.840;4.948;2023-03-04T08:56:36;13.33;;;7.13;;
11135;SDS011;5622;50.840;4.948;2023-03-04T08:59:03;15.17;;;7.90;;
11135;SDS011;5622;50.840;4.948;2023-03-04T09:01:31;22.87;;;8.70;;
11135;SDS011;5622;50.840;4.948;2023-03-04T09:03:59;13.27;;;8.17;;
11135;SDS011;5622;50.840;4.948;2023-03-04T09:06:26;11.83;;;7.17;;
11135;SDS011;5622;50.840;4.948;2023-03-04T09:08:53;16.60;;;9.17;;
11135;SDS011;5622;50.840;4.948;2023-03-04T09:11:20;40.17;;;20.73;;
11135;SDS011;5622;50.840;4.948;2023-03-04T09:13:47;26.80;;;14.20;;
11135;SDS011;5622;50.840;4.948;2023-03-04T09:16:16;58.87;;;25.57;;
11135;SDS011;5622;50.840;4.948;2023-03-04T09:18:43;71.57;;;28.97;;
11135;SDS011;5622;50.840;4.948;2023-03-04T09:21:11;26.83;;;14.73;;
11135;SDS011;5622;50.840;4.948;2023-03-04T09:23:38;18.10;;;8.03;;
11135;SDS011;5622;50.840;4.948;2023-03-04T09:26:13;15.10;;;7.77;;
11135;SDS011;5622;50.840;4.948;2023-03-04T09:28:48;18.50;;;7.00;;
11135;SDS011;5622;50.840;4.948;2023-03-04T09:31:16;15.00;;;6.50;;
11135;SDS011;5622;50.840;4.948;2023-03-04T09:33:43;19.00;;;7.10;;
11135;SDS011;5622;50.840;4.948;2023-03-04T09:36:12;11.90;;;6.70;;
11135;SDS011;5622;50.840;4.948;2023-03-04T09:38:40;15.07;;;6.20;;
11135;SDS011;5622;50.840;4.948;2023-03-04T09:41:09;11.00;;;6.60;;
11135;SDS011;5622;50.840;4.948;2023-03-04T09:43:40;11.90;;;7.13;;
11135;SDS011;5622;50.840;4.948;2023-03-04T09:46:09;17.30;;;7.50;;
11135;SDS011;5622;50.840;4.948;2023-03-04T09:48:42;15.67;;;7.67;;
11135;SDS011;5622;50.840;4.948;2023-03-04T09:51:26;9.50;;;6.77;;
11135;SDS011;5622;50.840;4.948;2023-03-04T09:54:06;12.93;;;7.03;;
11135;SDS011;5622;50.840;4.948;2023-03-04T09:56:37;16.87;;;7.67;;
11135;SDS011;5622;50.840;4.948;2023-03-04T09:59:08;11.23;;;6.70;;
11135;SDS011;5622;50.840;4.948;2023-03-04T10:01:44;18.43;;;7.83;;
11135;SDS011;5622;50.840;4.948;2023-03-04T10:04:16;13.43;;;7.07;;
11135;SDS011;5622;50.840;4.948;2023-03-04T10:06:57;16.73;;;7.23;;
11135;SDS011;5622;50.840;4.948;2023-03-04T10:09:26;13.80;;;7.23;;
11135;SDS011;5622;50.840;4.948;2023-03-04T10:11:58;14.37;;;7.63;;
11135;SDS011;5622;50.840;4.948;2023-03-04T10:14:32;12.60;;;6.63;;
11135;SDS011;5622;50.840;4.948;2023-03-04T10:17:04;15.00;;;8.13;;
11135;SDS011;5622;50.840;4.948;2023-03-04T10:19:40;15.53;;;7.43;;
11135;SDS011;5622;50.840;4.948;2023-03-04T10:22:22;12.97;;;6.80;;
11135;SDS011;5622;50.840;4.948;2023-03-04T10:24:55;16.23;;;7.33;;
11135;SDS011;5622;50.840;4.948;2023-03-04T10:27:24;14.50;;;7.53;;
11135;SDS011;5622;50.840;4.948;2023-03-04T10:29:54;16.67;;;7.37;;
11135;SDS011;5622;50.840;4.948;2023-03-04T10:32:23;12.67;;;6.53;;
11135;SDS011;5622;50.840;4.948;2023-03-04T10:34:50;13.90;;;6.33;;
11135;SDS011;5622;50.840;4.948;2023-03-04T10:37:17;11.53;;;6.40;;
11135;SDS011;5622;50.840;4.948;2023-03-04T10:39:46;11.67;;;5.77;;
11135;SDS011;5622;50.840;4.948;2023-03-04T10:42:23;12.70;;;6.10;;
11135;SDS011;5622;50.840;4.948;2023-03-04T10:44:55;13.73;;;5.47;;
11135;SDS011;5622;50.840;4.948;2023-03-04T10:47:23;10.77;;;5.80;;
11135;SDS011;5622;50.840;4.948;2023-03-04T10:49:52;12.67;;;5.93;;
11135;SDS011;5622;50.840;4.948;2023-03-04T10:52:24;13.33;;;5.70;;
11135;SDS011;5622;50.840;4.948;2023-03-04T10:54:56;10.77;;;5.60;;
11135;SDS011;5622;50.840;4.948;2023-03-04T10:57:28;10.93;;;5.73;;
11135;SDS011;5622;50.840;4.948;2023-03-04T11:00:00;8.53;;;4.90;;
11135;SDS011;5622;50.840;4.948;2023-03-04T11:02:30;8.43;;;5.07;;
11135;SDS011;5622;50.840;4.948;2023-03-04T11:05:05;5.73;;;4.50;;
11135;SDS011;5622;50.840;4.948;2023-03-04T11:07:42;9.00;;;5.60;;
11135;SDS011;5622;50.840;4.948;2023-03-04T11:10:16;12.60;;;4.80;;
11135;SDS011;5622;50.840;4.948;2023-03-04T11:12:48;12.30;;;4.80;;
11135;SDS011;5622;50.840;4.948;2023-03-04T11:15:17;9.37;;;4.40;;
11135;SDS011;5622;50.840;4.948;2023-03-04T11:17:49;7.83;;;3.93;;
11135;SDS011;5622;50.840;4.948;2023-03-04T11:20:24;12.50;;;4.17;;
11135;SDS011;5622;50.840;4.948;2023-03-04T11:22:54;8.33;;;3.73;;
11135;SDS011;5622;50.840;4.948;2023-03-04T11:25:26;6.50;;;3.50;;
11135;SDS011;5622;50.840;4.948;2023-03-04T11:27:57;8.40;;;3.57;;
11135;SDS011;5622;50.840;4.948;2023-03-04T11:30:32;6.90;;;3.50;;
11135;SDS011;5622;50.840;4.948;2023-03-04T11:33:06;7.37;;;3.50;;
11135;SDS011;5622;50.840;4.948;2023-03-04T11:35:42;7.50;;;3.20;;
11135;SDS011;5622;50.840;4.948;2023-03-04T11:38:17;8.27;;;3.50;;
11135;SDS011;5622;50.840;4.948;2023-03-04T11:40:48;6.43;;;3.30;;
11135;SDS011;5622;50.840;4.948;2023-03-04T11:43:21;5.93;;;3.17;;
11135;SDS011;5622;50.840;4.948;2023-03-04T11:46:00;9.07;;;3.53;;
11135;SDS011;5622;50.840;4.948;2023-03-04T11:48:48;5.50;;;3.23;;
11135;SDS011;5622;50.840;4.948;2023-03-04T11:51:20;10.17;;;3.40;;
11135;SDS011;5622;50.840;4.948;2023-03-04T11:53:59;6.70;;;3.50;;
11135;SDS011;5622;50.840;4.948;2023-03-04T11:56:44;8.67;;;3.50;;
11135;SDS011;5622;50.840;4.948;2023-03-04T11:59:21;6.33;;;3.80;;
11135;SDS011;5622;50.840;4.948;2023-03-04T12:02:14;6.73;;;3.87;;
11135;SDS011;5622;50.840;4.948;2023-03-04T12:07:51;10.13;;;4.73;;
11135;SDS011;5622;50.840;4.948;2023-03-04T12:10:27;9.37;;;4.30;;
11135;SDS011;5622;50.840;4.948;2023-03-04T12:16:07;7.33;;;4.77;;
11135;SDS011;5622;50.840;4.948;2023-03-04T12:18:47;8.40;;;4.50;;
11135;SDS011;5622;50.840;4.948;2023-03-04T12:21:32;12.33;;;4.80;;
11135;SDS011;5622;50.840;4.948;2023-03-04T12:24:19;8.63;;;4.63;;
11135;SDS011;5622;50.840;4.948;2023-03-04T12:27:00;9.80;;;4.60;;
11135;SDS011;5622;50.840;4.948;2023-03-04T12:29:44;10.43;;;4.90;;
11135;SDS011;5622;50.840;4.948;2023-03-04T12:32:20;7.07;;;4.53;;
11135;SDS011;5622;50.840;4.948;2023-03-04T12:35:02;9.17;;;4.90;;
11135;SDS011;5622;50.840;4.948;2023-03-04T12:37:55;9.80;;;5.63;;
11135;SDS011;5622;50.840;4.948;2023-03-04T12:40:41;9.23;;;4.97;;
11135;SDS011;5622;50.840;4.948;2023-03-04T12:43:21;9.07;;;4.57;;
11135;SDS011;5622;50.840;4.948;2023-03-04T12:46:00;12.57;;;4.83;;
11135;SDS011;5622;50.840;4.948;2023-03-04T12:48:38;9.43;;;4.43;;
11135;SDS011;5622;50.840;4.948;2023-03-04T12:51:20;8.27;;;4.23;;
11135;SDS011;5622;50.840;4.948;2023-03-04T12:53:57;12.63;;;4.73;;
11135;SDS011;5622;50.840;4.948;2023-03-04T12:56:36;10.37;;;4.30;;
11135;SDS011;5622;50.840;4.948;2023-03-04T12:59:09;22.33;;;12.90;;
11135;SDS011;5622;50.840;4.948;2023-03-04T13:01:44;35.30;;;17.13;;
11135;SDS011;5622;50.840;4.948;2023-03-04T13:04:20;15.97;;;9.37;;
11135;SDS011;5622;50.840;4.948;2023-03-04T13:06:55;8.73;;;6.10;;
11135;SDS011;5622;50.840;4.948;2023-03-04T13:09:37;10.63;;;5.23;;
11135;SDS011;5622;50.840;4.948;2023-03-04T13:12:13;9.33;;;4.80;;
11135;SDS011;5622;50.840;4.948;2023-03-04T13:17:43;11.20;;;4.60;;
11135;SDS011;5622;50.840;4.948;2023-03-04T13:20:21;7.20;;;4.90;;
11135;SDS011;5622;50.840;4.948;2023-03-04T13:22:56;7.70;;;4.63;;
11135;SDS011;5622;50.840;4.948;2023-03-04T13:25:34;9.43;;;4.50;;
11135;SDS011;5622;50.840;4.948;2023-03-04T13:28:19;8.80;;;4.33;;
11135;SDS011;5622;50.840;4.948;2023-03-04T13:34:01;8.97;;;3.50;;
11135;SDS011;5622;50.840;4.948;2023-03-04T13:36:33;7.30;;;3.63;;
11135;SDS011;5622;50.840;4.948;2023-03-04T13:39:32;7.30;;;3.60;;
11135;SDS011;5622;50.840;4.948;2023-03-04T13:42:01;6.63;;;4.00;;
11135;SDS011;5622;50.840;4.948;2023-03-04T13:44:31;9.67;;;4.03;;
11135;SDS011;5622;50.840;4.948;2023-03-04T13:47:14;7.00;;;3.50;;
11135;SDS011;5622;50.840;4.948;2023-03-04T13:49:45;5.93;;;3.40;;
11135;SDS011;5622;50.840;4.948;2023-03-04T13:57:59;9.03;;;2.97;;
11135;SDS011;5622;50.840;4.948;2023-03-04T14:00:27;5.40;;;3.17;;
11135;SDS011;5622;50.840;4.948;2023-03-04T14:03:10;5.67;;;2.80;;
11135;SDS011;5622;50.840;4.948;2023-03-04T14:05:41;5.50;;;2.63;;
11135;SDS011;5622;50.840;4.948;2023-03-04T14:08:17;4.73;;;2.80;;
11135;SDS011;5622;50.840;4.948;2023-03-04T14:10:53;7.97;;;3.30;;
11135;SDS011;5622;50.840;4.948;2023-03-04T14:13:20;7.03;;;3.60;;
11135;SDS011;5622;50.840;4.948;2023-03-04T14:15:52;7.03;;;3.47;;
11135;SDS011;5622;50.840;4.948;2023-03-04T14:18:21;6.73;;;3.57;;
11135;SDS011;5622;50.840;4.948;2023-03-04T14:20:51;5.33;;;3.70;;
11135;SDS011;5622;50.840;4.948;2023-03-04T14:23:24;9.63;;;4.00;;
11135;SDS011;5622;50.840;4.948;2023-03-04T14:26:02;9.57;;;4.00;;
11135;SDS011;5622;50.840;4.948;2023-03-04T14:28:30;7.53;;;4.80;;
11135;SDS011;5622;50.840;4.948;2023-03-04T14:30:58;9.93;;;6.23;;
11135;SDS011;5622;50.840;4.948;2023-03-04T14:33:26;12.43;;;6.90;;
11135;SDS011;5622;50.840;4.948;2023-03-04T14:35:56;10.10;;;6.70;;
11135;SDS011;5622;50.840;4.948;2023-03-04T14:38:26;22.00;;;13.53;;
11135;SDS011;5622;50.840;4.948;2023-03-04T14:40:56;9.63;;;6.23;;
11135;SDS011;5622;50.840;4.948;2023-03-04T14:43:28;9.83;;;5.40;;
11135;SDS011;5622;50.840;4.948;2023-03-04T14:45:58;7.63;;;5.90;;
11135;SDS011;5622;50.840;4.948;2023-03-04T14:48:28;8.13;;;5.83;;
11135;SDS011;5622;50.840;4.948;2023-03-04T14:50:59;8.50;;;5.67;;
11135;SDS011;5622;50.840;4.948;2023-03-04T14:53:27;9.57;;;6.47;;
11135;SDS011;5622;50.840;4.948;2023-03-04T14:55:56;8.90;;;6.60;;
11135;SDS011;5622;50.840;4.948;2023-03-04T14:58:25;10.40;;;6.83;;
11135;SDS011;5622;50.840;4.948;2023-03-04T15:01:11;13.03;;;7.40;;
11135;SDS011;5622;50.840;4.948;2023-03-04T15:03:41;14.33;;;7.83;;
11135;SDS011;5622;50.840;4.948;2023-03-04T15:06:15;17.03;;;8.10;;
11135;SDS011;5622;50.840;4.948;2023-03-04T15:08:45;8.53;;;7.03;;
11135;SDS011;5622;50.840;4.948;2023-03-04T15:11:20;10.60;;;7.10;;
11135;SDS011;5622;50.840;4.948;2023-03-04T15:13:50;10.47;;;7.63;;
11135;SDS011;5622;50.840;4.948;2023-03-04T15:16:20;10.20;;;7.70;;
11135;SDS011;5622;50.840;4.948;2023-03-04T15:18:52;10.03;;;7.00;;
11135;SDS011;5622;50.840;4.948;2023-03-04T15:21:34;10.67;;;6.83;;
11135;SDS011;5622;50.840;4.948;2023-03-04T15:24:03;6.57;;;5.67;;
11135;SDS011;5622;50.840;4.948;2023-03-04T15:26:33;8.57;;;6.57;;
11135;SDS011;5622;50.840;4.948;2023-03-04T15:29:09;8.90;;;7.40;;